• Join FlightAware (Why Join?)
  • Login
  • US Flag 
04:12AM EDT


 

Airport Tracker/Info


-or-


 

Live Flight TrackerFlight Track Log ✈ N928XJ ✈ 15-May-2012 ✈ KJFK - KORD

Flight Track Log - Related Links

Times and Time Zones

All times are in EDT time to prevent confusion due to time zone crossing. See the N928XJ flight status page for this flight to view local times or setup timezone preferences in your user account.

Time Position Orientation Groundspeed Altitude Reporting Facility
EDT Latitude Longitude Course Direction KTS MPH feet Rate Location/Type
03:40PM 40.6000 -73.8000 33° Northeast 164 189 2,500  Level New York TRACON
03:45PM 40.8747 -73.5594 311° West 363 418 14,500 2,460 Climbing New York Center
03:46PM 40.9328 -73.6469 312° West 361 415 16,800 1,200 Climbing New York Center
03:47PM 41.0133 -73.7658 308° West 420 483 16,900 60 Climbing New York Center
03:48PM 41.0750 -73.8703 282° West 409 471 17,000  Climbing New York Center
03:49PM 41.0947 -73.9978 276° West 392 451 17,000  Level New York Center
03:50PM 41.1069 -74.1556 275° West 392 451 17,100 540 Climbing New York Center
03:51PM 41.1156 -74.2853 273° West 397 457 18,200 1,680 Climbing New York Center
03:52PM 41.1200 -74.4150 276° West 380 437 20,600 2,220 Climbing New York Center
03:53PM 41.1303 -74.5531 275° West 374 430 22,600 1,920 Climbing New York Center
03:54PM 41.1383 -74.6886 297° West 374 430 24,500 1,620 Climbing New York Center
03:55PM 41.1786 -74.7931 300° West 374 430 25,900 1,680 Climbing New York Center
03:56PM 41.2439 -74.9458 301° West 385 443 28,000 1,620 Climbing New York Center
03:57PM 41.3019 -75.0764 300° West 401 461 29,200 1,260 Climbing New York Center
03:58PM 41.3594 -75.2072 298° West 415 478 30,500 1,800 Climbing New York Center
03:59PM 41.4147 -75.3436 300° West 415 478 32,900 1,680 Climbing New York Center
04:00PM 41.4681 -75.4664 293° West 407 468 34,000 540 Climbing New York Center
04:01PM 41.5125 -75.6081 291° West 402 463 34,000  Level New York Center
04:02PM 41.5525 -75.7494 291° West 402 463 34,000  Level New York Center
04:03PM 41.5942 -75.8942 291° West 407 468 34,000  Level New York Center
04:04PM 41.6356 -76.0417 291° West 418 481 34,000  Level New York Center
04:05PM 41.6825 -76.2036 291° West 418 481 34,000  Level New York Center
04:06PM 41.7236 -76.3486 289° West 418 481 34,000  Level New York Center
04:07PM 41.7625 -76.4967 291° West 418 481 34,000  Level New York Center
04:08PM 41.8033 -76.6419 290° West 418 481 34,000  Level New York Center
04:09PM 41.8419 -76.7847 291° West 418 481 34,000  Level New York Center
04:10PM 41.8881 -76.9486 290° West 405 466 34,000  Level Cleveland Center
04:11PM 41.9258 -77.0917 290° West 400 460 34,000  Level Cleveland Center
04:12PM 41.9631 -77.2264 289° West 400 460 34,000  Level Cleveland Center
04:13PM 41.9983 -77.3642 291° West 400 460 34,000  Level Cleveland Center
04:14PM 42.0375 -77.5050 289° West 400 460 34,000  Level Cleveland Center
04:15PM 42.0725 -77.6431 291° West 400 460 34,000  Level Cleveland Center
04:16PM 42.1114 -77.7814 289° West 400 460 34,000  Level Cleveland Center
04:17PM 42.1458 -77.9197 289° West 400 460 34,000  Level Cleveland Center
04:18PM 42.1825 -78.0611 290° West 400 460 34,000  Level Cleveland Center
04:19PM 42.2208 -78.2028 289° West 400 460 34,000  Level Cleveland Center
04:20PM 42.2572 -78.3444 289° West 400 460 34,000  Level Cleveland Center
04:21PM 42.2933 -78.4892 289° West 405 466 34,000  Level Cleveland Center
04:22PM 42.3314 -78.6394 289° West 405 466 34,000  Level Cleveland Center
04:23PM 42.3647 -78.7733 289° West 421 484 34,000  Level Cleveland Center
04:24PM 42.4025 -78.9214 290° West 421 484 34,000  Level Cleveland Center
04:25PM 42.4419 -79.0722 287° West 421 484 34,000  Level Cleveland Center
04:26PM 42.4817 -79.2458 277° West 426 490 34,000  Level Cleveland Center
04:27PM 42.4936 -79.3864 275° West 426 490 34,000  Level Cleveland Center
04:28PM 42.5036 -79.5439 273° West 426 490 34,000  Level Cleveland Center
04:29PM 42.5111 -79.7214 274° West 426 490 34,000  Level Cleveland Center
04:30PM 42.5186 -79.8817 273° West 420 483 34,000  Level Cleveland Center
04:31PM 42.5233 -80.0197 275° West 420 483 34,000  Level Cleveland Center
04:32PM 42.5325 -80.1775 272° West 410 472 34,000  Level Cleveland Center
04:33PM 42.5369 -80.3325 273° West 415 478 34,000  Level Cleveland Center
04:34PM 42.5436 -80.4931 273° West 423 487 34,000  Level Cleveland Center
04:35PM 42.5497 -80.6481 273° West 423 487 34,000  Level Cleveland Center
04:36PM 42.5578 -80.8369 273° West 418 481 34,000  Level Cleveland Center
04:37PM 42.5636 -80.9919 273° West 418 481 34,000  Level Cleveland Center
04:38PM 42.5692 -81.1500 272° West 424 488 34,000  Level Cleveland Center
04:39PM 42.5725 -81.3022 276° West 418 481 34,000  Level Cleveland Center
04:41PM 42.5858 -81.4772 285° West 418 481 34,000  Level Cleveland Center
04:42PM 42.6178 -81.6411 283° West 423 487 34,000  Level Cleveland Center
04:43PM 42.6436 -81.7942 283° West 423 487 34,000  Level Cleveland Center
04:44PM 42.6689 -81.9414 282° West 409 471 34,000  Level Cleveland Center
04:45PM 42.6919 -82.0944 285° West 415 478 34,000  Level Cleveland Center
04:46PM 42.7211 -82.2450 283° West 415 478 34,000  Level Cleveland Center
04:47PM 42.7461 -82.3983 276° West 415 478 34,000  Level Cleveland Center
04:48PM 42.7581 -82.5514 275° West 409 471 34,000  Level Cleveland Center
04:49PM 42.7678 -82.7044 275° West 409 471 34,000  Level Cleveland Center
04:50PM 42.7792 -82.8717 276° West 409 471 34,000  Level Cleveland Center
04:51PM 42.7925 -83.0419 275° West 409 471 34,000  Level Cleveland Center
04:52PM 42.8017 -83.1950 276° West 409 471 34,000  Level Cleveland Center
04:53PM 42.8125 -83.3483 274° West 409 471 34,000 -240 Level Cleveland Center
04:54PM 42.8211 -83.5044 275° West 414 476 33,600 -960 Descending Cleveland Center
04:55PM 42.8314 -83.6750 276° West 419 482 32,100 -1,500 Descending Cleveland Center
04:56PM 42.8439 -83.8314 273° West 414 476 30,600 -1,080 Descending Cleveland Center
04:57PM 42.8497 -83.9875 275° West 414 476 30,000 -300 Descending Cleveland Center
04:58PM 42.8594 -84.1436 274° West 414 476 30,000  Level Cleveland Center
04:59PM 42.8672 -84.3000 276° West 414 476 30,000  Level Cleveland Center
05:00PM 42.8772 -84.4367 276° West 414 476 30,000  Level Cleveland Center
05:00PM 42.8867 -84.5603 263° West 416 479 30,000  Level Chicago Center
05:01PM 42.8736 -84.7003 263° West 404 465 30,000  Level Chicago Center
05:02PM 42.8608 -84.8486 260° West 404 465 30,000  Level Chicago Center
05:03PM 42.8414 -84.9972 263° West 404 465 30,000 -300 Level Chicago Center
05:04PM 42.8283 -85.1483 260° West 409 471 29,500 -540 Descending Chicago Center
05:05PM 42.8086 -85.2994 262° West 409 471 29,000 -720 Descending Chicago Center
05:06PM 42.7933 -85.4564 257° West 409 471 28,100 -1,260 Descending Chicago Center
05:07PM 42.7653 -85.6192 256° West 409 471 26,500 -1,560 Descending Chicago Center
05:08PM 42.7386 -85.7650 256° West 409 471 25,000 -1,500 Descending Chicago Center
05:09PM 42.7136 -85.9050 256° West 403 464 23,500 -1,560 Descending Chicago Center
05:10PM 42.6886 -86.0447 257° West 392 451 21,900 -1,440 Descending Chicago Center
05:11PM 42.6672 -86.1731 256° West 387 445 20,700 -960 Descending Chicago Center
05:12PM 42.6417 -86.3097 256° West 382 440 20,000 -360 Descending Chicago Center
05:13PM 42.6161 -86.4436 255° West 376 433 20,000 -840 Level Chicago Center
05:14PM 42.5900 -86.5775 256° West 376 433 18,400 -1,800 Descending Chicago Center
05:15PM 42.5661 -86.7056 250° West 364 419 16,400 -2,100 Descending Chicago Center
05:16PM 42.5333 -86.8308 251° West 359 413 14,300 -2,100 Descending Chicago Center
05:17PM 42.4989 -86.9675 247° West 359 413 12,300 -2,100 Descending Chicago Center
05:18PM 42.4617 -87.0869 249° West 354 407 10,200 -1,380 Descending Chicago Center
05:19PM 42.4322 -87.1894 239° Southwest 335 386 9,600 -600 Descending Chicago Center
05:21PM 42.3883 -87.2892 183° South 249 287 9,000 -300 Descending Chicago Center
05:22PM 42.3278 -87.2939 184° South 274 315 9,000 -120 Level Chicago Center
05:23PM 42.2383 -87.3025 183° South 291 335 8,800 -540 Descending Chicago Center
05:24PM 42.1572 -87.3081 181° South 291 335 8,000 -420 Descending Chicago Center
05:25PM 42.0800 -87.3106 203° Southwest 291 335 8,000  Level Chicago Center
05:26PM 42.0142 -87.3489 243° Southwest 285 328 8,000 -480 Level Chicago Center
05:27PM 41.9803 -87.4394 271° West 282 325 7,100 -1,080 Descending Chicago Center
05:28PM 41.9817 -87.5342 271° West 277 319 5,900 -1,260 Descending Chicago Center
05:29PM 41.9833 -87.6500 270° West 188 216 4,200 -1,200 Descending Chicago TRACON
05:30PM 41.9833 -87.7000 270° West 168 193 3,200 -900 Descending Chicago TRACON
05:31PM 41.9833 -87.7667 270° West 165 190 2,500 -840 Descending Chicago TRACON
05:32PM 41.9833 -87.8167 270° West 139 160 1,600 -780 Descending Chicago TRACON
05:33PM 41.9833 -87.8667 270° West 125 144 1,000 -600 Descending Chicago TRACON